createdAt,value
2023-12-09T00:00:51.337Z,100.00
2023-12-09T00:03:19.453Z,100.00
2023-12-09T00:05:47.489Z,100.00
2023-12-09T00:08:15.448Z,100.00
2023-12-09T00:10:43.441Z,100.00
2023-12-09T00:13:11.353Z,100.00
2023-12-09T00:15:39.785Z,100.00
2023-12-09T00:18:07.947Z,100.00
2023-12-09T00:20:35.943Z,100.00
2023-12-09T00:23:03.961Z,100.00
2023-12-09T00:25:31.974Z,100.00
2023-12-09T00:27:59.946Z,100.00
2023-12-09T00:30:28.070Z,100.00
2023-12-09T00:32:57.033Z,100.00
2023-12-09T00:35:25.076Z,100.00
2023-12-09T00:37:53.017Z,100.00
2023-12-09T00:40:21.379Z,100.00
2023-12-09T00:42:49.411Z,100.00
2023-12-09T00:45:17.477Z,100.00
2023-12-09T00:47:45.536Z,100.00
2023-12-09T00:50:13.544Z,100.00
2023-12-09T00:52:41.535Z,100.00
2023-12-09T00:55:09.758Z,100.00
2023-12-09T00:57:37.814Z,100.00
2023-12-09T01:00:06.742Z,100.00
2023-12-09T01:02:34.783Z,100.00
2023-12-09T01:05:02.836Z,100.00
2023-12-09T01:07:31.185Z,100.00
2023-12-09T01:09:59.152Z,100.00
2023-12-09T01:12:27.504Z,100.00
2023-12-09T01:14:55.739Z,100.00
2023-12-09T01:17:23.737Z,100.00
2023-12-09T01:19:51.816Z,100.00
2023-12-09T01:22:19.789Z,100.00
2023-12-09T01:24:47.667Z,100.00
2023-12-09T01:27:15.612Z,100.00
2023-12-09T01:29:43.610Z,100.00
2023-12-09T01:32:11.647Z,100.00
2023-12-09T01:34:42.417Z,100.00
2023-12-09T01:37:10.391Z,100.00
2023-12-09T01:39:41.188Z,100.00
2023-12-09T01:42:10.854Z,100.00
2023-12-09T01:44:38.902Z,100.00
2023-12-09T01:47:07.448Z,100.00
2023-12-09T01:49:36.602Z,100.00
2023-12-09T01:52:04.978Z,100.00
2023-12-09T01:54:33.776Z,100.00
2023-12-09T01:57:02.120Z,100.00
2023-12-09T01:59:30.494Z,100.00
2023-12-09T02:01:59.312Z,100.00
2023-12-09T02:04:27.375Z,100.00
2023-12-09T02:06:55.353Z,100.00
2023-12-09T02:09:23.358Z,100.00
2023-12-09T02:12:28.975Z,100.00
2023-12-09T02:15:07.413Z,100.00
2023-12-09T02:17:48.202Z,100.00
2023-12-09T02:20:16.845Z,100.00
2023-12-09T02:22:44.801Z,100.00
2023-12-09T02:25:12.743Z,100.00
2023-12-09T02:27:54.844Z,100.00
2023-12-09T02:30:48.663Z,100.00
2023-12-09T02:33:19.463Z,100.00
2023-12-09T02:35:51.617Z,100.00
2023-12-09T02:38:21.422Z,100.00
2023-12-09T02:40:49.903Z,100.00
2023-12-09T02:43:18.974Z,100.00
2023-12-09T02:45:48.452Z,100.00
2023-12-09T02:48:16.565Z,100.00
2023-12-09T02:50:44.649Z,100.00
2023-12-09T02:53:12.660Z,100.00
2023-12-09T02:55:40.677Z,100.00
2023-12-09T02:58:08.590Z,100.00
2023-12-09T03:00:36.826Z,100.00
2023-12-09T03:03:04.944Z,100.00
2023-12-09T03:05:32.976Z,100.00
2023-12-09T03:08:01.475Z,100.00
2023-12-09T03:10:29.448Z,100.00
2023-12-09T03:12:57.493Z,100.00
2023-12-09T03:15:25.499Z,100.00
2023-12-09T03:17:53.754Z,100.00
2023-12-09T03:20:23.242Z,100.00
2023-12-09T03:22:51.184Z,100.00
2023-12-09T03:25:19.185Z,100.00
2023-12-09T03:27:47.086Z,100.00
2023-12-09T03:30:15.138Z,100.00
2023-12-09T03:32:43.228Z,100.00
2023-12-09T03:35:12.500Z,100.00
2023-12-09T03:37:41.087Z,100.00
2023-12-09T03:40:09.825Z,100.00
2023-12-09T03:42:37.812Z,100.00
2023-12-09T03:45:06.173Z,100.00
2023-12-09T03:47:34.264Z,100.00
2023-12-09T03:50:02.255Z,100.00
2023-12-09T03:52:30.484Z,100.00
2023-12-09T03:54:58.494Z,100.00
2023-12-09T03:57:26.425Z,100.00
2023-12-09T03:59:54.403Z,100.00
2023-12-09T04:02:22.945Z,100.00
2023-12-09T04:04:51.836Z,100.00
2023-12-09T04:07:19.821Z,100.00
2023-12-09T04:09:47.731Z,100.00
2023-12-09T04:12:15.698Z,100.00
2023-12-09T04:14:43.697Z,100.00
2023-12-09T04:17:11.605Z,100.00
2023-12-09T04:19:39.648Z,100.00
2023-12-09T04:22:07.682Z,100.00
2023-12-09T04:24:35.571Z,100.00
2023-12-09T04:27:03.607Z,100.00
2023-12-09T04:29:31.620Z,100.00
2023-12-09T04:32:00.143Z,100.00
2023-12-09T04:34:28.238Z,100.00
2023-12-09T04:36:56.294Z,100.00
2023-12-09T04:39:24.556Z,100.00
2023-12-09T04:41:52.527Z,100.00
2023-12-09T04:44:20.453Z,100.00
2023-12-09T04:46:48.713Z,100.00
2023-12-09T04:49:16.865Z,100.00
2023-12-09T04:51:44.909Z,100.00
2023-12-09T04:54:12.939Z,100.00
2023-12-09T04:56:40.891Z,100.00
2023-12-09T04:59:08.757Z,100.00
2023-12-09T05:01:36.629Z,100.00
2023-12-09T05:04:07.717Z,100.00
2023-12-09T05:06:35.749Z,100.00
2023-12-09T05:09:05.413Z,100.00
2023-12-09T05:11:33.487Z,100.00
2023-12-09T05:14:01.401Z,100.00
2023-12-09T05:16:30.353Z,100.00
2023-12-09T05:18:58.489Z,100.00
2023-12-09T05:21:35.263Z,100.00
2023-12-09T05:24:05.439Z,100.00
2023-12-09T05:26:33.617Z,100.00
2023-12-09T05:29:01.767Z,100.00
2023-12-09T05:31:29.729Z,100.00
2023-12-09T05:33:58.007Z,100.00
2023-12-09T05:36:26.232Z,100.00
2023-12-09T05:38:54.200Z,100.00
2023-12-09T05:41:22.210Z,100.00
2023-12-09T05:43:50.271Z,100.00
2023-12-09T05:46:22.026Z,100.00
2023-12-09T05:48:50.844Z,100.00
2023-12-09T05:51:19.068Z,100.00
2023-12-09T05:53:46.994Z,100.00
2023-12-09T05:56:14.946Z,100.00
2023-12-09T05:58:43.059Z,100.00
2023-12-09T06:01:11.353Z,100.00
2023-12-09T06:03:39.599Z,100.00
2023-12-09T06:06:08.250Z,100.00
2023-12-09T06:08:36.361Z,100.00
2023-12-09T06:11:04.637Z,100.00
2023-12-09T06:13:33.925Z,100.00
2023-12-09T06:16:01.888Z,100.00
2023-12-09T06:18:29.968Z,100.00
2023-12-09T06:20:58.020Z,100.00
2023-12-09T06:23:26.268Z,100.00
2023-12-09T06:25:55.035Z,100.00
2023-12-09T06:28:22.972Z,100.00
2023-12-09T06:30:52.052Z,100.00
2023-12-09T06:33:20.350Z,100.00
2023-12-09T06:35:48.261Z,100.00
2023-12-09T06:38:16.138Z,100.00
2023-12-09T06:40:44.093Z,100.00
2023-12-09T06:43:12.069Z,100.00
2023-12-09T06:45:40.051Z,100.00
2023-12-09T06:48:08.224Z,100.00
2023-12-09T06:50:36.206Z,100.00
2023-12-09T06:53:04.130Z,100.00
2023-12-09T06:55:32.045Z,100.00
2023-12-09T06:57:59.965Z,100.00
2023-12-09T07:00:27.903Z,100.00
2023-12-09T07:02:59.520Z,100.00
2023-12-09T07:05:28.869Z,100.00
2023-12-09T07:07:56.873Z,100.00
2023-12-09T07:10:24.876Z,100.00
2023-12-09T07:12:52.877Z,100.00
2023-12-09T07:15:20.877Z,100.00
2023-12-09T07:17:49.044Z,100.00
2023-12-09T07:20:17.044Z,100.00
2023-12-09T07:22:45.048Z,100.00
2023-12-09T07:25:12.925Z,100.00
2023-12-09T07:27:40.908Z,100.00
2023-12-09T07:30:09.644Z,100.00
2023-12-09T07:32:38.158Z,100.00
2023-12-09T07:35:07.083Z,100.00
2023-12-09T07:37:35.043Z,100.00
2023-12-09T07:40:03.001Z,100.00
2023-12-09T07:42:31.360Z,100.00
2023-12-09T07:44:59.548Z,100.00
2023-12-09T07:47:28.105Z,100.00
2023-12-09T07:49:56.109Z,100.00
2023-12-09T07:52:24.247Z,100.00
2023-12-09T07:54:52.171Z,100.00
2023-12-09T07:57:20.111Z,100.00
2023-12-09T07:59:48.249Z,100.00
2023-12-09T08:02:16.218Z,100.00
2023-12-09T08:04:44.202Z,100.00
2023-12-09T08:07:12.418Z,100.00
2023-12-09T08:09:40.388Z,100.00
2023-12-09T08:12:08.717Z,100.00
2023-12-09T08:14:36.760Z,100.00
2023-12-09T08:17:04.840Z,100.00
2023-12-09T08:19:32.885Z,100.00
2023-12-09T08:22:01.951Z,100.00
2023-12-09T08:24:30.438Z,100.00
2023-12-09T08:26:58.453Z,100.00
2023-12-09T08:29:29.521Z,100.00
2023-12-09T08:31:59.434Z,100.00
2023-12-09T08:34:27.487Z,100.00
2023-12-09T08:36:55.589Z,100.00
2023-12-09T08:39:24.880Z,100.00
2023-12-09T08:41:52.833Z,100.00
2023-12-09T08:44:20.843Z,100.00
2023-12-09T08:46:48.810Z,100.00
2023-12-09T08:49:17.061Z,100.00
2023-12-09T08:51:47.152Z,100.00
2023-12-09T08:54:15.940Z,100.00
2023-12-09T08:56:43.981Z,100.00
2023-12-09T08:59:12.625Z,100.00
2023-12-09T09:01:41.215Z,100.00
2023-12-09T09:04:09.353Z,100.00
2023-12-09T09:06:37.419Z,100.00
2023-12-09T09:09:06.595Z,100.00
2023-12-09T09:11:34.598Z,100.00
2023-12-09T09:14:02.557Z,100.00
2023-12-09T09:16:30.440Z,100.00
2023-12-09T09:18:58.491Z,100.00
2023-12-09T09:21:26.686Z,100.00
2023-12-09T09:23:54.722Z,100.00
2023-12-09T09:26:24.373Z,100.00
2023-12-09T09:28:52.406Z,100.00
2023-12-09T09:31:20.416Z,100.00
2023-12-09T09:33:48.470Z,100.00
2023-12-09T09:36:16.607Z,100.00
2023-12-09T09:38:44.644Z,100.00
2023-12-09T09:41:47.890Z,100.00
2023-12-09T09:44:21.274Z,100.00
2023-12-09T09:46:51.542Z,100.00
2023-12-09T09:49:22.425Z,100.00
2023-12-09T09:51:54.495Z,100.00
2023-12-09T09:54:24.469Z,100.00
2023-12-09T09:56:53.364Z,100.00
2023-12-09T09:59:22.991Z,100.00
2023-12-09T10:01:51.059Z,100.00
2023-12-09T10:04:19.062Z,100.00
2023-12-09T10:06:48.788Z,100.00
2023-12-09T10:09:17.063Z,100.00
2023-12-09T10:11:45.577Z,100.00
2023-12-09T10:14:13.613Z,100.00
2023-12-09T10:16:41.853Z,100.00
2023-12-09T10:19:16.302Z,100.00
2023-12-09T10:21:45.117Z,100.00
2023-12-09T10:24:13.086Z,100.00
2023-12-09T10:26:41.846Z,100.00
2023-12-09T10:29:09.981Z,98.86
2023-12-09T10:31:38.172Z,100.00
2023-12-09T10:34:07.138Z,99.28
2023-12-09T10:36:35.326Z,97.75
2023-12-09T10:39:03.355Z,99.17
2023-12-09T10:41:31.304Z,99.01
2023-12-09T10:43:59.257Z,95.57
2023-12-09T10:46:27.149Z,98.23
2023-12-09T10:48:56.419Z,97.05
2023-12-09T10:51:25.749Z,96.81
2023-12-09T10:53:53.714Z,97.40
2023-12-09T10:56:21.712Z,96.26
2023-12-09T10:58:51.513Z,98.79
2023-12-09T11:01:20.998Z,98.55
2023-12-09T11:03:49.473Z,99.86
2023-12-09T11:06:20.109Z,100.00
2023-12-09T11:08:48.408Z,100.00
2023-12-09T11:11:18.319Z,100.00
2023-12-09T11:13:48.694Z,100.00
2023-12-09T11:16:21.148Z,100.00
2023-12-09T11:19:00.623Z,100.00
2023-12-09T11:21:31.406Z,98.61
2023-12-09T11:24:00.650Z,100.00
2023-12-09T11:26:33.475Z,100.00
2023-12-09T11:29:09.656Z,99.78
2023-12-09T11:31:49.074Z,99.23
2023-12-09T11:34:26.060Z,100.00
2023-12-09T11:36:54.905Z,100.00
2023-12-09T11:39:25.156Z,100.00
2023-12-09T11:41:53.420Z,100.00
2023-12-09T11:44:21.592Z,100.00
2023-12-09T11:46:49.609Z,100.00
2023-12-09T11:49:17.708Z,100.00
2023-12-09T11:51:46.505Z,100.00
2023-12-09T11:54:14.592Z,100.00
2023-12-09T11:56:43.105Z,100.00
2023-12-09T11:59:11.131Z,100.00
2023-12-09T12:01:39.086Z,100.00
2023-12-09T12:04:07.225Z,100.00
2023-12-09T12:06:35.488Z,100.00
2023-12-09T12:09:05.678Z,100.00
2023-12-09T12:11:35.404Z,100.00
2023-12-09T12:14:03.653Z,100.00
2023-12-09T12:16:31.619Z,100.00
2023-12-09T12:18:59.735Z,100.00
2023-12-09T12:21:27.799Z,100.00
2023-12-09T12:23:56.322Z,100.00
2023-12-09T12:26:24.338Z,100.00
2023-12-09T12:28:54.230Z,100.00
2023-12-09T12:31:23.180Z,100.00
2023-12-09T12:33:51.359Z,100.00
2023-12-09T12:36:19.936Z,100.00
2023-12-09T12:38:49.238Z,100.00
2023-12-09T12:41:17.854Z,100.00
2023-12-09T12:43:45.924Z,100.00
2023-12-09T12:46:13.900Z,100.00
2023-12-09T12:48:42.079Z,100.00
2023-12-09T12:51:10.443Z,100.00
2023-12-09T12:53:38.458Z,100.00
2023-12-09T12:56:06.941Z,100.00
2023-12-09T12:58:34.970Z,100.00
2023-12-09T13:01:03.025Z,100.00
2023-12-09T13:03:31.508Z,100.00
2023-12-09T13:05:59.617Z,100.00
2023-12-09T13:08:30.982Z,100.00
2023-12-09T13:11:00.902Z,100.00
2023-12-09T13:13:29.357Z,100.00
2023-12-09T13:15:57.318Z,100.00
2023-12-09T13:18:26.002Z,100.00
2023-12-09T13:20:54.781Z,100.00
2023-12-09T13:23:22.762Z,100.00
2023-12-09T13:25:50.970Z,100.00
2023-12-09T13:28:18.999Z,100.00
2023-12-09T13:30:47.228Z,100.00
2023-12-09T13:33:15.419Z,100.00
2023-12-09T13:35:43.903Z,100.00
2023-12-09T13:38:12.097Z,100.00
2023-12-09T13:40:44.507Z,100.00
2023-12-09T13:43:12.570Z,100.00
2023-12-09T13:45:40.596Z,100.00
2023-12-09T13:48:08.817Z,100.00
2023-12-09T13:50:39.054Z,100.00
2023-12-09T13:53:09.297Z,100.00
2023-12-09T13:55:37.438Z,100.00
2023-12-09T13:58:06.438Z,100.00
2023-12-09T14:00:34.556Z,100.00
2023-12-09T14:03:03.018Z,100.00
2023-12-09T14:05:31.238Z,100.00
2023-12-09T14:07:59.233Z,100.00
2023-12-09T14:10:27.310Z,100.00
2023-12-09T14:12:55.314Z,100.00
2023-12-09T14:15:23.377Z,100.00
2023-12-09T14:17:51.652Z,100.00
2023-12-09T14:20:22.174Z,100.00
2023-12-09T14:22:50.233Z,100.00
2023-12-09T14:25:18.299Z,100.00
2023-12-09T14:27:46.382Z,100.00
2023-12-09T14:30:15.004Z,100.00
2023-12-09T14:32:46.838Z,100.00
2023-12-09T14:35:16.772Z,100.00
2023-12-09T14:37:50.258Z,100.00
2023-12-09T14:40:18.492Z,100.00
2023-12-09T14:42:46.561Z,100.00
2023-12-09T14:45:15.024Z,100.00
2023-12-09T14:47:53.390Z,100.00
2023-12-09T14:50:26.591Z,100.00
2023-12-09T14:52:54.916Z,100.00
2023-12-09T14:55:23.230Z,100.00
2023-12-09T14:57:51.336Z,100.00
2023-12-09T15:00:19.887Z,100.00
2023-12-09T15:02:47.961Z,100.00
2023-12-09T15:05:16.201Z,100.00
2023-12-09T15:07:44.420Z,100.00
2023-12-09T15:10:13.295Z,100.00
2023-12-09T15:12:41.449Z,100.00
2023-12-09T15:15:10.789Z,100.00
2023-12-09T15:17:39.044Z,100.00
2023-12-09T15:20:14.167Z,100.00
2023-12-09T15:22:42.278Z,100.00
2023-12-09T15:25:10.824Z,100.00
2023-12-09T15:27:39.446Z,100.00
2023-12-09T15:30:09.507Z,100.00
2023-12-09T15:32:37.978Z,100.00
2023-12-09T15:35:06.263Z,100.00
2023-12-09T15:37:34.914Z,100.00
2023-12-09T15:40:03.099Z,100.00
2023-12-09T15:42:31.261Z,100.00
2023-12-09T15:44:59.548Z,100.00
2023-12-09T15:47:27.614Z,100.00
2023-12-09T15:49:56.611Z,100.00
2023-12-09T15:52:24.675Z,100.00
2023-12-09T15:54:52.670Z,100.00
2023-12-09T15:57:21.282Z,100.00
2023-12-09T15:59:49.467Z,100.00
2023-12-09T16:02:17.667Z,100.00
2023-12-09T16:04:45.647Z,100.00
2023-12-09T16:07:14.176Z,100.00
2023-12-09T16:09:47.940Z,100.00
2023-12-09T16:12:21.944Z,100.00
2023-12-09T16:14:54.226Z,100.00
2023-12-09T16:17:22.579Z,100.00
2023-12-09T16:19:51.452Z,100.00
2023-12-09T16:22:19.496Z,100.00
2023-12-09T16:24:48.328Z,100.00
2023-12-09T16:27:17.126Z,100.00
2023-12-09T16:29:45.118Z,100.00
2023-12-09T16:32:13.578Z,100.00
2023-12-09T16:34:41.672Z,100.00
2023-12-09T16:37:11.805Z,100.00
2023-12-09T16:39:39.915Z,100.00
2023-12-09T16:42:08.033Z,100.00
2023-12-09T16:44:36.045Z,100.00
2023-12-09T16:47:04.092Z,100.00
2023-12-09T16:49:32.138Z,100.00
2023-12-09T16:52:00.139Z,100.00
2023-12-09T16:54:28.231Z,100.00
2023-12-09T16:56:56.330Z,100.00
2023-12-09T16:59:24.784Z,100.00
2023-12-09T17:01:52.790Z,100.00
2023-12-09T17:04:20.959Z,100.00
2023-12-09T17:06:54.784Z,100.00
2023-12-09T17:09:23.096Z,100.00
2023-12-09T17:11:54.048Z,100.00
2023-12-09T17:14:22.261Z,100.00
2023-12-09T17:16:50.387Z,100.00
2023-12-09T17:19:18.488Z,100.00
2023-12-09T17:21:46.638Z,100.00
2023-12-09T17:24:14.909Z,100.00
2023-12-09T17:26:43.021Z,100.00
2023-12-09T17:29:11.006Z,100.00
2023-12-09T17:31:43.501Z,100.00
2023-12-09T17:34:13.213Z,100.00
2023-12-09T17:36:41.867Z,100.00
2023-12-09T17:39:09.904Z,100.00
2023-12-09T17:41:37.887Z,100.00
2023-12-09T17:44:06.068Z,100.00
2023-12-09T17:46:34.120Z,100.00
2023-12-09T17:49:02.193Z,100.00
2023-12-09T17:51:30.355Z,100.00
2023-12-09T17:53:58.366Z,100.00
2023-12-09T17:56:26.432Z,100.00
2023-12-09T17:58:55.928Z,100.00
2023-12-09T18:01:24.427Z,100.00
2023-12-09T18:03:52.503Z,100.00
2023-12-09T18:06:21.509Z,100.00
2023-12-09T18:08:50.519Z,100.00
2023-12-09T18:11:18.496Z,100.00
2023-12-09T18:13:46.563Z,100.00
2023-12-09T18:16:16.497Z,100.00
2023-12-09T18:18:44.790Z,100.00
2023-12-09T18:21:12.884Z,100.00
2023-12-09T18:23:41.010Z,100.00
2023-12-09T18:26:09.121Z,100.00
2023-12-09T18:28:39.634Z,100.00
2023-12-09T18:31:08.151Z,100.00
2023-12-09T18:33:37.951Z,100.00
2023-12-09T18:36:06.972Z,100.00
2023-12-09T18:38:34.938Z,100.00
2023-12-09T18:41:02.895Z,100.00
2023-12-09T18:43:30.884Z,100.00
2023-12-09T18:45:58.974Z,100.00
2023-12-09T18:48:29.406Z,100.00
2023-12-09T18:50:58.565Z,100.00
2023-12-09T18:53:26.553Z,100.00
2023-12-09T18:55:57.635Z,100.00
2023-12-09T18:58:26.433Z,100.00
2023-12-09T19:01:02.073Z,100.00
2023-12-09T19:03:38.375Z,100.00
2023-12-09T19:06:06.917Z,100.00
2023-12-09T19:08:34.905Z,100.00
2023-12-09T19:11:02.931Z,100.00
2023-12-09T19:13:30.944Z,100.00
2023-12-09T19:15:59.046Z,100.00
2023-12-09T19:18:27.086Z,100.00
2023-12-09T19:20:55.079Z,100.00
2023-12-09T19:23:25.366Z,100.00
2023-12-09T19:25:53.808Z,100.00
2023-12-09T19:28:21.845Z,100.00
2023-12-09T19:30:49.861Z,100.00
2023-12-09T19:33:21.055Z,100.00
2023-12-09T19:35:49.145Z,100.00
2023-12-09T19:38:17.146Z,100.00
2023-12-09T19:40:45.181Z,100.00
2023-12-09T19:43:14.106Z,100.00
2023-12-09T19:45:42.250Z,100.00
2023-12-09T19:48:10.610Z,100.00
2023-12-09T19:50:41.701Z,100.00
2023-12-09T19:53:10.215Z,100.00
2023-12-09T19:55:38.247Z,100.00
2023-12-09T19:58:06.603Z,100.00
2023-12-09T20:00:34.664Z,100.00
2023-12-09T20:03:02.990Z,100.00
2023-12-09T20:05:33.943Z,100.00
2023-12-09T20:08:01.958Z,100.00
2023-12-09T20:10:30.429Z,100.00
2023-12-09T20:12:58.459Z,100.00
2023-12-09T20:15:29.351Z,100.00
2023-12-09T20:17:57.384Z,100.00
2023-12-09T20:20:31.225Z,100.00
2023-12-09T20:22:59.383Z,100.00
2023-12-09T20:25:27.514Z,100.00
2023-12-09T20:27:55.557Z,100.00
2023-12-09T20:30:23.529Z,100.00
2023-12-09T20:32:52.195Z,100.00
2023-12-09T20:35:20.314Z,100.00
2023-12-09T20:37:49.566Z,100.00
2023-12-09T20:40:17.686Z,100.00
2023-12-09T20:42:45.674Z,100.00
2023-12-09T20:45:13.832Z,100.00
2023-12-09T20:47:43.524Z,100.00
2023-12-09T20:50:12.035Z,100.00
2023-12-09T20:52:40.485Z,100.00
2023-12-09T20:55:09.414Z,100.00
2023-12-09T20:57:37.469Z,100.00
2023-12-09T21:00:06.061Z,100.00
2023-12-09T21:02:34.045Z,100.00
2023-12-09T21:05:05.154Z,100.00
2023-12-09T21:07:36.440Z,100.00
2023-12-09T21:10:06.448Z,100.00
2023-12-09T21:12:37.698Z,100.00
2023-12-09T21:15:06.112Z,100.00
2023-12-09T21:17:34.354Z,100.00
2023-12-09T21:20:02.345Z,100.00
2023-12-09T21:22:32.196Z,100.00
2023-12-09T21:25:00.348Z,100.00
2023-12-09T21:27:28.424Z,100.00
2023-12-09T21:29:56.411Z,100.00
2023-12-09T21:32:24.348Z,100.00
2023-12-09T21:34:52.621Z,100.00
2023-12-09T21:37:20.735Z,100.00
2023-12-09T21:39:51.236Z,100.00
2023-12-09T21:42:19.331Z,100.00
2023-12-09T21:44:47.461Z,100.00
2023-12-09T21:47:15.535Z,100.00
2023-12-09T21:49:43.853Z,100.00
2023-12-09T21:52:12.040Z,100.00
2023-12-09T21:54:40.106Z,100.00
2023-12-09T21:57:08.201Z,100.00
2023-12-09T21:59:36.187Z,100.00
2023-12-09T22:02:04.256Z,100.00
2023-12-09T22:04:32.291Z,100.00
2023-12-09T22:07:00.265Z,100.00
2023-12-09T22:09:28.421Z,100.00
2023-12-09T22:11:56.394Z,100.00
2023-12-09T22:14:24.550Z,100.00
2023-12-09T22:16:52.738Z,100.00
2023-12-09T22:19:20.864Z,100.00
2023-12-09T22:21:49.522Z,100.00
2023-12-09T22:24:17.804Z,100.00
2023-12-09T22:26:46.342Z,100.00
2023-12-09T22:29:14.512Z,100.00
2023-12-09T22:31:46.386Z,100.00
2023-12-09T22:34:14.463Z,100.00
2023-12-09T22:36:42.546Z,100.00
2023-12-09T22:39:14.282Z,100.00
2023-12-09T22:41:42.411Z,100.00
2023-12-09T22:44:10.466Z,100.00
2023-12-09T22:46:38.570Z,100.00
2023-12-09T22:49:06.874Z,100.00
2023-12-09T22:51:35.004Z,100.00
2023-12-09T22:54:03.063Z,100.00
2023-12-09T22:56:32.483Z,100.00
2023-12-09T22:59:01.178Z,100.00
2023-12-09T23:01:35.305Z,100.00
2023-12-09T23:04:03.832Z,100.00
2023-12-09T23:06:31.943Z,100.00
2023-12-09T23:09:00.074Z,100.00
2023-12-09T23:11:28.047Z,100.00
2023-12-09T23:13:55.952Z,100.00
2023-12-09T23:16:23.934Z,100.00
2023-12-09T23:18:52.331Z,100.00
2023-12-09T23:21:20.484Z,100.00
2023-12-09T23:23:50.153Z,100.00
2023-12-09T23:26:18.904Z,100.00
2023-12-09T23:28:47.174Z,100.00
2023-12-09T23:31:16.599Z,100.00
2023-12-09T23:33:48.242Z,100.00
2023-12-09T23:36:18.018Z,100.00
2023-12-09T23:38:46.005Z,100.00
2023-12-09T23:41:18.013Z,100.00
2023-12-09T23:43:46.076Z,100.00
2023-12-09T23:46:20.980Z,100.00
2023-12-09T23:48:49.263Z,100.00
2023-12-09T23:51:17.743Z,100.00
2023-12-09T23:53:45.977Z,100.00
2023-12-09T23:56:14.547Z,100.00
2023-12-09T23:58:44.519Z,100.00
